createdAt,value
2019-05-26T00:00:50.135Z,12.30
2019-05-26T00:03:58.817Z,12.26
2019-05-26T00:07:30.312Z,12.32
2019-05-26T00:10:28.149Z,12.25
2019-05-26T00:13:36.776Z,12.24
2019-05-26T00:16:45.416Z,12.21
2019-05-26T00:19:54.239Z,12.26
2019-05-26T00:23:03.110Z,12.25
2019-05-26T00:26:11.643Z,12.26
2019-05-26T00:29:20.347Z,12.26
2019-05-26T00:32:28.886Z,12.29
2019-05-26T00:35:37.579Z,12.24
2019-05-26T00:38:46.227Z,12.24
2019-05-26T00:41:54.865Z,12.21
2019-05-26T00:45:14.689Z,12.23
2019-05-26T00:48:23.267Z,12.17
2019-05-26T00:51:31.901Z,12.16
2019-05-26T00:54:40.511Z,12.15
2019-05-26T00:57:59.413Z,12.13
2019-05-26T01:01:08.123Z,12.12
2019-05-26T01:04:16.726Z,12.16
2019-05-26T01:07:25.382Z,12.18
2019-05-26T01:10:34.050Z,12.17
2019-05-26T01:13:41.084Z,12.18
2019-05-26T01:16:49.714Z,12.18
2019-05-26T01:19:58.429Z,12.15
2019-05-26T01:23:07.178Z,12.10
2019-05-26T01:26:15.822Z,12.08
2019-05-26T01:29:34.960Z,12.14
2019-05-26T01:32:43.718Z,12.11
2019-05-26T01:35:52.514Z,12.02
2019-05-26T01:39:01.608Z,12.03
2019-05-26T01:42:20.491Z,12.09
2019-05-26T01:45:29.307Z,12.06
2019-05-26T01:48:37.945Z,12.11
2019-05-26T01:51:46.629Z,12.06
2019-05-26T01:54:56.237Z,12.04
2019-05-26T01:58:05.436Z,12.07
2019-05-26T02:01:13.964Z,12.11
2019-05-26T02:04:22.700Z,12.12
2019-05-26T02:07:31.906Z,12.09
2019-05-26T02:10:40.840Z,12.08
2019-05-26T02:13:49.495Z,12.12
2019-05-26T02:16:59.294Z,12.14
2019-05-26T02:20:08.794Z,12.22
2019-05-26T02:23:18.144Z,12.22
2019-05-26T02:26:26.800Z,12.22
2019-05-26T02:29:35.834Z,12.22
2019-05-26T02:32:54.946Z,12.29
2019-05-26T02:36:03.573Z,12.27
2019-05-26T02:39:12.401Z,12.27
2019-05-26T02:42:21.009Z,12.33
2019-05-26T02:45:29.744Z,12.26
2019-05-26T02:48:38.513Z,12.27
2019-05-26T02:51:47.244Z,12.33
2019-05-26T02:54:55.790Z,12.33
2019-05-26T02:58:04.431Z,12.34
2019-05-26T03:01:23.596Z,12.33
2019-05-26T03:04:43.381Z,12.32
2019-05-26T03:07:53.512Z,12.29
2019-05-26T03:11:03.054Z,12.32
2019-05-26T03:14:13.105Z,12.29
2019-05-26T03:17:25.015Z,12.33
2019-05-26T03:20:39.990Z,12.35
2019-05-26T03:23:50.936Z,12.42
2019-05-26T03:26:59.564Z,12.44
2019-05-26T03:30:09.920Z,12.39
2019-05-26T03:33:16.587Z,12.40
2019-05-26T03:36:25.313Z,12.42
2019-05-26T03:39:46.152Z,12.48
2019-05-26T03:42:54.477Z,12.54
2019-05-26T03:46:19.703Z,12.51
2019-05-26T03:49:38.728Z,12.56
2019-05-26T03:52:47.343Z,12.55
2019-05-26T03:55:56.078Z,12.57
2019-05-26T03:59:04.772Z,12.61
2019-05-26T04:02:13.428Z,12.63
2019-05-26T04:05:22.075Z,12.67
2019-05-26T04:08:31.836Z,12.63
2019-05-26T04:11:50.879Z,12.76
2019-05-26T04:14:59.553Z,12.69
2019-05-26T04:18:08.190Z,12.77
2019-05-26T04:21:16.835Z,12.85
2019-05-26T04:24:25.503Z,12.91
2019-05-26T04:27:34.040Z,12.91
2019-05-26T04:30:42.715Z,12.94
2019-05-26T04:33:51.336Z,13.01
2019-05-26T04:36:58.708Z,12.99
2019-05-26T04:40:25.075Z,13.02
2019-05-26T04:43:18.010Z,13.14
2019-05-26T04:46:26.664Z,13.21
2019-05-26T04:49:37.445Z,13.21
2019-05-26T04:53:04.561Z,13.25
2019-05-26T04:55:57.137Z,13.37
2019-05-26T04:59:06.288Z,13.41
2019-05-26T05:02:25.278Z,13.52
2019-05-26T05:05:33.850Z,13.50
2019-05-26T05:08:42.600Z,13.64
2019-05-26T05:11:51.284Z,13.80
2019-05-26T05:14:59.933Z,13.95
2019-05-26T05:18:08.677Z,13.84
2019-05-26T05:21:17.356Z,13.93
2019-05-26T05:24:26.020Z,14.04
2019-05-26T05:27:34.694Z,14.02
2019-05-26T05:30:43.387Z,14.08
2019-05-26T05:34:02.202Z,14.10
2019-05-26T05:37:10.866Z,14.12
2019-05-26T05:40:19.486Z,14.13
2019-05-26T05:43:28.143Z,14.26
2019-05-26T05:46:36.779Z,14.19
2019-05-26T05:49:45.558Z,14.20
2019-05-26T05:52:54.257Z,14.25
2019-05-26T05:56:03.030Z,14.19
2019-05-26T05:59:11.799Z,14.17
2019-05-26T06:02:20.457Z,14.15
2019-05-26T06:05:29.097Z,14.17
2019-05-26T06:08:48.053Z,14.23
2019-05-26T06:11:58.147Z,14.14
2019-05-26T06:15:10.613Z,14.11
2019-05-26T06:18:19.283Z,14.17
2019-05-26T06:21:28.007Z,14.17
2019-05-26T06:24:36.645Z,14.29
2019-05-26T06:27:43.813Z,14.38
2019-05-26T06:30:52.351Z,14.53
2019-05-26T06:34:01.014Z,14.64
2019-05-26T06:37:09.640Z,14.68
2019-05-26T06:40:18.528Z,14.72
2019-05-26T06:43:27.190Z,14.69
2019-05-26T06:46:35.820Z,14.76
2019-05-26T06:49:44.639Z,14.79
2019-05-26T06:52:53.306Z,14.84
2019-05-26T06:56:12.430Z,14.96
2019-05-26T06:59:31.397Z,14.87
2019-05-26T07:02:39.937Z,14.89
2019-05-26T07:05:48.586Z,15.02
2019-05-26T07:08:57.277Z,15.15
2019-05-26T07:12:05.833Z,15.35
2019-05-26T07:15:14.530Z,15.42
2019-05-26T07:18:23.166Z,15.42
2019-05-26T07:21:41.946Z,15.48
2019-05-26T07:24:50.579Z,15.49
2019-05-26T07:27:59.451Z,15.51
2019-05-26T07:31:08.017Z,15.53
2019-05-26T07:34:16.599Z,15.58
2019-05-26T07:37:25.243Z,15.54
2019-05-26T07:40:33.823Z,15.59
2019-05-26T07:43:42.347Z,15.70
2019-05-26T07:47:01.660Z,15.70
2019-05-26T07:50:11.313Z,15.66
2019-05-26T07:53:19.995Z,15.64
2019-05-26T07:56:28.511Z,15.60
2019-05-26T07:59:37.080Z,15.68
2019-05-26T08:02:55.947Z,15.73
2019-05-26T08:06:04.771Z,15.76
2019-05-26T08:09:11.959Z,15.89
2019-05-26T08:12:26.831Z,16.00
2019-05-26T08:15:40.065Z,16.15
2019-05-26T08:18:48.612Z,16.01
2019-05-26T08:21:57.301Z,16.11
2019-05-26T08:25:06.321Z,16.15
2019-05-26T08:28:15.012Z,16.30
2019-05-26T08:31:23.683Z,16.33
2019-05-26T08:34:32.345Z,16.40
2019-05-26T08:37:40.929Z,16.50
2019-05-26T08:40:49.488Z,16.51
2019-05-26T08:43:58.109Z,16.48
2019-05-26T08:47:17.137Z,16.51
2019-05-26T08:50:25.876Z,16.45
2019-05-26T08:53:34.522Z,16.43
2019-05-26T08:56:43.154Z,16.39
2019-05-26T08:59:51.926Z,16.44
2019-05-26T09:03:00.548Z,16.50
2019-05-26T09:06:11.113Z,16.53
2019-05-26T09:09:19.708Z,16.52
2019-05-26T09:12:28.236Z,16.46
2019-05-26T09:15:36.750Z,16.46
2019-05-26T09:18:55.763Z,16.57
2019-05-26T09:22:14.589Z,16.69
2019-05-26T09:25:23.263Z,16.66
2019-05-26T09:28:32.004Z,16.63
2019-05-26T09:31:40.726Z,16.77
2019-05-26T09:34:49.305Z,16.81
2019-05-26T09:37:57.863Z,16.77
2019-05-26T09:41:06.412Z,16.74
2019-05-26T09:44:15.014Z,16.73
2019-05-26T09:47:33.964Z,16.70
2019-05-26T09:50:42.555Z,16.61
2019-05-26T09:54:01.336Z,16.61
2019-05-26T09:57:01.293Z,16.63
2019-05-26T10:00:15.888Z,16.58
2019-05-26T10:03:22.547Z,16.63
2019-05-26T10:06:31.116Z,16.68
2019-05-26T10:09:39.674Z,16.78
2019-05-26T10:12:48.206Z,16.76
2019-05-26T10:15:56.759Z,16.70
2019-05-26T10:19:15.792Z,16.60
2019-05-26T10:22:24.597Z,16.34
2019-05-26T10:25:33.329Z,16.29
2019-05-26T10:28:42.075Z,16.11
2019-05-26T10:31:50.671Z,15.86
2019-05-26T10:34:59.216Z,15.86
2019-05-26T10:38:07.906Z,15.74
2019-05-26T10:41:16.578Z,15.80
2019-05-26T10:44:25.371Z,15.81
2019-05-26T10:47:33.948Z,15.88
2019-05-26T10:50:42.704Z,15.95
2019-05-26T10:53:51.246Z,16.00
2019-05-26T10:57:10.192Z,16.15
2019-05-26T11:00:20.870Z,16.17
2019-05-26T11:03:39.920Z,16.31
2019-05-26T11:06:48.645Z,16.27
2019-05-26T11:09:57.382Z,16.18
2019-05-26T11:13:05.961Z,16.08
2019-05-26T11:16:14.509Z,16.08
2019-05-26T11:19:23.108Z,16.01
2019-05-26T11:22:31.658Z,15.97
2019-05-26T11:25:50.428Z,16.02
2019-05-26T11:28:59.038Z,15.95
2019-05-26T11:32:07.619Z,16.00
2019-05-26T11:35:16.419Z,16.11
2019-05-26T11:38:35.129Z,16.22
2019-05-26T11:41:45.004Z,16.42
2019-05-26T11:44:54.765Z,16.57
2019-05-26T11:48:13.670Z,16.82
2019-05-26T11:51:22.367Z,16.90
2019-05-26T11:54:34.343Z,17.05
2019-05-26T11:57:41.361Z,17.17
2019-05-26T12:00:50.037Z,17.38
2019-05-26T12:03:58.615Z,17.52
2019-05-26T12:07:07.227Z,17.73
2019-05-26T12:10:17.537Z,17.81
2019-05-26T12:13:36.825Z,17.96
2019-05-26T12:16:45.721Z,17.92
2019-05-26T12:19:54.405Z,18.02
2019-05-26T12:23:13.137Z,18.19
2019-05-26T12:26:21.799Z,18.27
2019-05-26T12:29:29.636Z,18.36
2019-05-26T12:32:48.571Z,18.56
2019-05-26T12:35:57.280Z,18.58
2019-05-26T12:39:08.807Z,18.64
2019-05-26T12:42:17.381Z,18.76
2019-05-26T12:45:25.998Z,18.95
2019-05-26T12:48:36.622Z,19.09
2019-05-26T12:51:45.072Z,19.32
2019-05-26T12:55:08.103Z,19.57
2019-05-26T12:58:14.792Z,19.69
2019-05-26T13:01:33.468Z,20.07
2019-05-26T13:04:42.024Z,20.46
2019-05-26T13:07:50.769Z,20.97
2019-05-26T13:10:59.580Z,21.21
2019-05-26T13:14:08.326Z,21.16
2019-05-26T13:17:16.943Z,21.09
2019-05-26T13:20:25.736Z,20.96
2019-05-26T13:23:34.375Z,20.78
2019-05-26T13:26:42.945Z,20.62
2019-05-26T13:29:51.491Z,20.56
2019-05-26T13:33:10.466Z,20.36
2019-05-26T13:36:19.131Z,20.18
2019-05-26T13:39:27.858Z,20.14
2019-05-26T13:42:36.448Z,20.12
2019-05-26T13:45:45.067Z,20.20
2019-05-26T13:48:54.014Z,20.34
2019-05-26T13:52:02.549Z,20.50
2019-05-26T13:55:11.873Z,20.69
2019-05-26T13:58:20.417Z,20.79
2019-05-26T14:01:28.982Z,20.84
2019-05-26T14:04:37.687Z,20.94
2019-05-26T14:07:46.515Z,21.00
2019-05-26T14:10:55.087Z,20.99
2019-05-26T14:14:13.948Z,21.09
2019-05-26T14:17:23.668Z,20.98
2019-05-26T14:20:38.053Z,20.97
2019-05-26T14:23:57.130Z,21.01
2019-05-26T14:27:05.885Z,20.90
2019-05-26T14:30:14.599Z,20.83
2019-05-26T14:33:23.344Z,20.77
2019-05-26T14:36:31.885Z,20.76
2019-05-26T14:39:40.171Z,20.69
2019-05-26T14:42:59.025Z,20.69
2019-05-26T14:46:07.726Z,20.70
2019-05-26T14:49:16.356Z,20.61
2019-05-26T14:52:24.887Z,20.49
2019-05-26T14:55:35.065Z,20.53
2019-05-26T14:58:43.701Z,20.51
2019-05-26T15:01:52.578Z,20.55
2019-05-26T15:05:01.263Z,20.62
2019-05-26T15:08:09.925Z,20.64
2019-05-26T15:11:18.477Z,20.68
2019-05-26T15:14:37.317Z,20.76
2019-05-26T15:17:45.864Z,20.68
2019-05-26T15:20:56.151Z,20.58
2019-05-26T15:24:04.903Z,20.68
2019-05-26T15:27:15.890Z,20.60
2019-05-26T15:30:26.832Z,20.60
2019-05-26T15:33:35.419Z,20.63
2019-05-26T15:36:54.241Z,20.75
2019-05-26T15:40:04.222Z,20.69
2019-05-26T15:43:11.282Z,20.68
2019-05-26T15:46:25.335Z,20.73
2019-05-26T15:49:35.818Z,20.77
2019-05-26T15:52:45.459Z,20.77
2019-05-26T15:55:54.010Z,20.78
2019-05-26T15:59:02.748Z,20.77
2019-05-26T16:02:21.591Z,20.81
2019-05-26T16:05:30.304Z,20.76
2019-05-26T16:08:38.964Z,20.74
2019-05-26T16:11:47.470Z,20.69
2019-05-26T16:14:56.690Z,20.73
2019-05-26T16:18:05.330Z,20.77
2019-05-26T16:21:27.036Z,20.87
2019-05-26T16:24:24.113Z,20.78
2019-05-26T16:27:32.659Z,20.87
2019-05-26T16:30:41.219Z,20.78
2019-05-26T16:34:06.093Z,20.84
2019-05-26T16:37:14.732Z,20.79
2019-05-26T16:40:23.451Z,20.80
2019-05-26T16:43:31.995Z,20.70
2019-05-26T16:46:55.165Z,20.59
2019-05-26T16:49:50.914Z,20.63
2019-05-26T16:52:59.456Z,20.61
2019-05-26T16:56:18.204Z,20.61
2019-05-26T16:59:27.152Z,20.42
2019-05-26T17:02:35.688Z,20.17
2019-05-26T17:05:44.338Z,20.04
2019-05-26T17:08:52.964Z,19.96
2019-05-26T17:12:01.510Z,19.95
2019-05-26T17:15:12.266Z,19.81
2019-05-26T17:18:21.311Z,19.54
2019-05-26T17:21:29.927Z,19.37
2019-05-26T17:24:38.557Z,19.18
2019-05-26T17:27:47.120Z,19.04
2019-05-26T17:30:55.768Z,18.94
2019-05-26T17:34:04.301Z,18.85
2019-05-26T17:37:42.818Z,18.85
2019-05-26T17:40:51.578Z,18.75
2019-05-26T17:44:00.103Z,18.63
2019-05-26T17:47:08.622Z,18.51
2019-05-26T17:50:18.415Z,18.47
2019-05-26T17:53:37.227Z,18.34
2019-05-26T17:56:46.007Z,18.19
2019-05-26T17:59:54.570Z,18.09
2019-05-26T18:03:03.228Z,18.08
2019-05-26T18:06:11.834Z,17.96
2019-05-26T18:09:20.454Z,17.75
2019-05-26T18:12:29.071Z,17.56
2019-05-26T18:15:37.756Z,17.55
2019-05-26T18:18:56.529Z,17.47
2019-05-26T18:22:05.403Z,17.38
2019-05-26T18:25:14.432Z,17.34
2019-05-26T18:28:33.755Z,17.33
2019-05-26T18:31:42.566Z,17.28
2019-05-26T18:34:51.433Z,17.24
2019-05-26T18:38:00.045Z,17.21
2019-05-26T18:41:08.554Z,17.17
2019-05-26T18:44:17.100Z,17.17
2019-05-26T18:47:25.690Z,17.16
2019-05-26T18:50:34.283Z,17.03
2019-05-26T18:53:53.135Z,17.02
2019-05-26T18:57:01.735Z,16.92
2019-05-26T19:00:11.176Z,17.01
2019-05-26T19:03:29.984Z,16.96
2019-05-26T19:06:38.608Z,16.79
2019-05-26T19:09:47.396Z,16.79
2019-05-26T19:12:55.940Z,16.61
2019-05-26T19:16:04.524Z,16.56
2019-05-26T19:19:13.239Z,16.43
2019-05-26T19:22:22.138Z,16.27
2019-05-26T19:25:30.841Z,16.27
2019-05-26T19:28:39.635Z,16.23
2019-05-26T19:31:48.190Z,16.28
2019-05-26T19:35:07.581Z,16.24
2019-05-26T19:38:16.356Z,16.09
2019-05-26T19:41:25.060Z,16.11
2019-05-26T19:44:33.806Z,16.14
2019-05-26T19:47:52.783Z,16.11
2019-05-26T19:51:12.506Z,16.17
2019-05-26T19:54:37.394Z,16.18
2019-05-26T19:57:46.135Z,16.03
2019-05-26T20:00:54.784Z,16.02
2019-05-26T20:04:03.311Z,16.02
2019-05-26T20:07:11.867Z,15.98
2019-05-26T20:10:20.627Z,15.96
2019-05-26T20:13:29.185Z,15.98
2019-05-26T20:16:37.744Z,15.97
2019-05-26T20:19:56.580Z,16.04
2019-05-26T20:23:05.248Z,16.00
2019-05-26T20:26:13.817Z,16.03
2019-05-26T20:29:22.424Z,16.08
2019-05-26T20:32:31.108Z,16.10
2019-05-26T20:35:39.657Z,16.08
2019-05-26T20:38:48.294Z,16.13
2019-05-26T20:42:07.347Z,16.21
2019-05-26T20:45:26.643Z,16.23
2019-05-26T20:48:35.271Z,16.20
2019-05-26T20:51:43.915Z,16.23
2019-05-26T20:54:52.454Z,16.27
2019-05-26T20:58:01.054Z,16.25
2019-05-26T21:01:08.102Z,16.27
2019-05-26T21:04:16.747Z,16.26
2019-05-26T21:07:25.281Z,16.26
2019-05-26T21:10:44.057Z,16.29
2019-05-26T21:13:52.607Z,16.23
2019-05-26T21:17:01.298Z,16.26
2019-05-26T21:20:10.440Z,16.24
2019-05-26T21:23:22.508Z,16.26
2019-05-26T21:26:29.223Z,16.26
2019-05-26T21:29:37.905Z,16.32
2019-05-26T21:32:46.448Z,16.32
2019-05-26T21:35:54.999Z,16.29
2019-05-26T21:39:13.845Z,16.39
2019-05-26T21:42:22.413Z,16.32
2019-05-26T21:45:31.132Z,16.30
2019-05-26T21:48:40.014Z,16.24
2019-05-26T21:51:48.644Z,16.30
2019-05-26T21:54:57.168Z,16.43
2019-05-26T21:58:05.872Z,16.31
2019-05-26T22:01:14.463Z,16.28
2019-05-26T22:04:23.058Z,16.24
2019-05-26T22:07:42.491Z,16.30
2019-05-26T22:10:51.233Z,16.14
2019-05-26T22:14:10.117Z,16.19
2019-05-26T22:17:18.660Z,16.07
2019-05-26T22:20:27.366Z,16.05
2019-05-26T22:23:35.977Z,16.05
2019-05-26T22:26:44.520Z,15.93
2019-05-26T22:29:53.247Z,15.96
2019-05-26T22:33:01.992Z,15.90
2019-05-26T22:36:10.590Z,15.91
2019-05-26T22:39:29.435Z,15.87
2019-05-26T22:42:38.031Z,15.71
2019-05-26T22:45:46.580Z,15.75
2019-05-26T22:48:55.236Z,15.69
2019-05-26T22:52:03.829Z,15.60
2019-05-26T22:55:12.765Z,15.61
2019-05-26T22:58:21.340Z,15.63
2019-05-26T23:01:29.849Z,15.59
2019-05-26T23:04:48.770Z,15.60
2019-05-26T23:07:57.628Z,15.52
2019-05-26T23:11:06.391Z,15.45
2019-05-26T23:14:14.942Z,15.44
2019-05-26T23:17:23.716Z,15.40
2019-05-26T23:20:32.336Z,15.39
2019-05-26T23:23:40.938Z,15.39
2019-05-26T23:26:49.933Z,15.40
2019-05-26T23:29:58.505Z,15.32
2019-05-26T23:33:07.205Z,15.30
2019-05-26T23:36:16.062Z,15.31
2019-05-26T23:39:24.951Z,15.30
2019-05-26T23:42:33.722Z,15.28
2019-05-26T23:45:42.276Z,15.29
2019-05-26T23:48:50.956Z,15.25
2019-05-26T23:51:59.521Z,15.30
2019-05-26T23:55:18.407Z,15.34
2019-05-26T23:58:26.973Z,15.28
